createdAt,value
2016-12-27T11:44:19.833Z,47.65
2016-12-27T11:45:00.519Z,47.56
2016-12-27T11:45:41.159Z,47.94
2016-12-27T11:46:21.785Z,47.65
2016-12-27T11:47:02.492Z,47.56
2016-12-27T11:47:43.158Z,47.56
2016-12-27T11:48:23.783Z,47.94
2016-12-27T11:49:04.422Z,47.56
2016-12-27T11:49:45.060Z,49.32
2016-12-27T11:50:25.679Z,48.06
2016-12-27T11:51:06.343Z,47.19
2016-12-27T11:51:47.035Z,47.77
2016-12-27T11:52:27.760Z,47.87
2016-12-27T11:53:08.383Z,48.54
2016-12-27T11:53:49.018Z,48.03
2016-12-27T11:54:29.667Z,48.13
2016-12-27T11:55:10.299Z,48.61
2016-12-27T11:55:50.996Z,48.16
2016-12-27T11:56:31.629Z,49.1
2016-12-27T11:57:12.253Z,47.65
2016-12-27T11:57:52.888Z,47.46
2016-12-27T11:58:33.511Z,47.08
2016-12-27T11:59:14.207Z,46.88
2016-12-27T11:59:54.952Z,47.15
2016-12-27T12:00:35.559Z,47.05
2016-12-27T12:01:16.192Z,48.11
2016-12-27T12:01:56.832Z,46.95
2016-12-27T12:02:37.498Z,46.67
2016-12-27T12:03:18.093Z,46.95
2016-12-27T12:03:58.721Z,47.53
2016-12-27T12:04:39.358Z,46.77
2016-12-27T12:05:20.022Z,47.05
2016-12-27T12:06:00.660Z,46.57
2016-12-27T12:06:41.294Z,47.15
2016-12-27T12:07:21.926Z,47.05
2016-12-27T12:08:02.676Z,47.15
2016-12-27T12:08:43.415Z,46.57
2016-12-27T12:09:24.035Z,47.05
2016-12-27T12:10:04.667Z,47.44
2016-12-27T12:10:45.315Z,47.05
2016-12-27T12:11:25.953Z,46.95
2016-12-27T12:12:06.583Z,47.44
2016-12-27T12:12:47.304Z,47.75
2016-12-27T12:13:27.937Z,46.78
2016-12-27T12:14:08.565Z,46.21
2016-12-27T12:14:49.201Z,45.83
2016-12-27T12:15:29.826Z,45.92
2016-12-27T12:16:10.457Z,45.83
2016-12-27T12:16:51.081Z,46.98
2016-12-27T12:17:31.716Z,47.27
2016-12-27T12:18:12.367Z,47.08
2016-12-27T12:18:53.073Z,46.31
2016-12-27T12:19:33.705Z,47.08
2016-12-27T12:20:14.371Z,46.59
2016-12-27T12:20:54.997Z,46.52
2016-12-27T12:21:35.620Z,46.91
2016-12-27T12:22:16.250Z,46.21
2016-12-27T12:22:56.890Z,46.01
2016-12-27T12:23:37.533Z,46.11
2016-12-27T12:24:18.229Z,46.11
2016-12-27T12:24:58.851Z,47.17
2016-12-27T12:25:39.486Z,46.78
2016-12-27T12:26:20.102Z,46.78
2016-12-27T12:27:00.730Z,46.59
2016-12-27T12:27:41.351Z,47.27
2016-12-27T12:28:22.065Z,46.69
2016-12-27T12:29:02.697Z,47.1
2016-12-27T12:29:43.319Z,46.62
2016-12-27T12:30:23.946Z,47.87
2016-12-27T12:31:04.632Z,47.1
2016-12-27T12:31:45.271Z,47.19
2016-12-27T12:32:25.949Z,46.81
2016-12-27T12:33:06.588Z,46.81
2016-12-27T12:33:47.261Z,47.39
2016-12-27T12:34:27.853Z,47.29
2016-12-27T12:35:08.495Z,47.49
2016-12-27T12:35:49.181Z,47
2016-12-27T12:36:29.766Z,47
2016-12-27T12:37:10.395Z,48.06
2016-12-27T12:37:51.114Z,47.87
2016-12-27T12:38:31.664Z,46.62
2016-12-27T12:39:12.308Z,48.16
2016-12-27T12:39:52.943Z,47.41
2016-12-27T12:40:33.563Z,48.64
2016-12-27T12:41:14.192Z,47.51
2016-12-27T12:41:54.820Z,48.18
2016-12-27T12:42:35.471Z,48.08
2016-12-27T12:43:16.093Z,47.97
2016-12-27T12:43:56.731Z,48.28
2016-12-27T12:44:37.356Z,48.57
2016-12-27T12:45:17.994Z,47.6
2016-12-27T12:45:58.644Z,48.16
2016-12-27T12:46:39.324Z,48.06
2016-12-27T12:47:19.996Z,48.47
2016-12-27T12:48:00.620Z,48.18
2016-12-27T12:48:41.270Z,48.18
2016-12-27T12:49:21.972Z,48.18
2016-12-27T12:50:02.644Z,48.47
2016-12-27T12:50:43.266Z,48.08
2016-12-27T12:51:23.898Z,48.28
2016-12-27T12:52:04.630Z,48.38
2016-12-27T12:52:45.272Z,49.24
2016-12-27T12:53:25.947Z,48.57
2016-12-27T12:54:06.578Z,49.91
2016-12-27T12:54:47.203Z,49.34
2016-12-27T12:55:27.833Z,49.34
2016-12-27T12:56:08.565Z,49.53
2016-12-27T12:56:49.196Z,49.73
2016-12-27T12:57:29.872Z,49.73
2016-12-27T12:58:10.503Z,49.15
2016-12-27T12:58:51.129Z,49.53
2016-12-27T12:59:31.823Z,50.69
2016-12-27T13:00:12.451Z,49.91
2016-12-27T13:00:53.078Z,49.34
2016-12-27T13:01:33.723Z,49.79
2016-12-27T13:02:14.348Z,51.34
2016-12-27T13:02:54.967Z,49.41
2016-12-27T13:03:35.601Z,49.22
2016-12-27T13:04:16.231Z,49.6
2016-12-27T13:04:56.853Z,49.41
2016-12-27T13:05:37.492Z,49.6
2016-12-27T13:06:18.227Z,49.99
2016-12-27T13:06:58.863Z,50.09
2016-12-27T13:07:39.509Z,50.09
2016-12-27T13:08:20.150Z,49.89
2016-12-27T13:09:00.779Z,50.85
2016-12-27T13:09:41.401Z,49.32
2016-12-27T13:10:22.079Z,49.89
2016-12-27T13:11:02.798Z,49.22
2016-12-27T13:11:43.507Z,50.76
2016-12-27T13:12:24.133Z,49.41
2016-12-27T13:13:04.760Z,49.79
2016-12-27T13:13:45.387Z,49.6
2016-12-27T13:14:26.031Z,49.22
2016-12-27T13:15:06.670Z,49.79
2016-12-27T13:15:47.297Z,49.41
2016-12-27T13:16:27.943Z,48.93
2016-12-27T13:17:08.577Z,49.32
2016-12-27T13:17:49.232Z,49.32
2016-12-27T13:18:29.860Z,49.1
2016-12-27T13:19:10.499Z,49.1
2016-12-27T13:19:51.129Z,49.41
2016-12-27T13:20:31.764Z,49.1
2016-12-27T13:21:12.399Z,48.9
2016-12-27T13:21:53.033Z,48.71
2016-12-27T13:22:33.756Z,49
2016-12-27T13:23:14.525Z,48.61
2016-12-27T13:23:55.161Z,48.81
2016-12-27T13:24:35.786Z,48.33
2016-12-27T13:25:16.416Z,48.13
2016-12-27T13:25:57.063Z,48.71
2016-12-27T13:26:37.696Z,48.33
2016-12-27T13:27:18.333Z,48.13
2016-12-27T13:27:58.959Z,48.03
2016-12-27T13:28:39.587Z,48.03
2016-12-27T13:29:20.234Z,48.23
2016-12-27T13:30:00.858Z,48.03
2016-12-27T13:30:41.554Z,48.03
2016-12-27T13:31:22.209Z,48.61
2016-12-27T13:32:02.830Z,48.03
2016-12-27T13:32:43.461Z,47.17
2016-12-27T13:33:24.090Z,45.7
2016-12-27T13:34:04.718Z,45.7
2016-12-27T13:34:46.076Z,45.68
2016-12-27T13:35:26.706Z,45.59
2016-12-27T13:36:07.347Z,45.97
2016-12-27T13:36:48.049Z,46.06
2016-12-27T13:37:28.721Z,46.36
2016-12-27T13:38:09.355Z,46.55
2016-12-27T13:38:50.008Z,47.22
2016-12-27T13:39:30.631Z,47.03
2016-12-27T13:40:11.248Z,47.03
2016-12-27T13:40:51.877Z,47.03
2016-12-27T13:41:32.506Z,47.03
2016-12-27T13:42:13.130Z,47.3
2016-12-27T13:42:53.766Z,47
2016-12-27T13:43:34.423Z,47
2016-12-27T13:44:15.063Z,46.81
2016-12-27T13:44:55.765Z,47
2016-12-27T13:45:36.483Z,46.91
2016-12-27T13:46:17.133Z,47.1
2016-12-27T13:46:57.756Z,47.1
2016-12-27T13:47:38.394Z,47.1
2016-12-27T13:48:19.028Z,47.1
2016-12-27T13:48:59.702Z,46.91
2016-12-27T13:49:40.328Z,46.91
2016-12-27T13:50:20.959Z,47.1
2016-12-27T13:51:01.612Z,47
2016-12-27T13:51:42.238Z,47
2016-12-27T13:52:22.867Z,46.72
2016-12-27T13:53:03.503Z,47.1
2016-12-27T13:53:44.175Z,47
2016-12-27T13:54:24.796Z,46.91
2016-12-27T13:55:05.429Z,46.53
2016-12-27T13:55:46.077Z,47
2016-12-27T13:56:26.704Z,47
2016-12-27T13:57:07.342Z,47
2016-12-27T13:57:48.055Z,46.91
2016-12-27T13:58:29.473Z,47.1
2016-12-27T13:59:10.374Z,47
2016-12-27T13:59:50.990Z,46.62
2016-12-27T14:00:31.626Z,46.81
2016-12-27T14:01:12.345Z,46.81
2016-12-27T14:01:52.980Z,47.1
2016-12-27T14:02:33.619Z,46.72
2016-12-27T14:03:14.251Z,47
2016-12-27T14:03:54.878Z,46.72
2016-12-27T14:04:35.504Z,47
2016-12-27T14:05:16.135Z,47.49
2016-12-27T14:05:56.773Z,47.1
2016-12-27T14:06:37.403Z,47.49
2016-12-27T14:07:18.047Z,46.91
2016-12-27T14:07:58.682Z,47
2016-12-27T14:08:39.311Z,46.91
2016-12-27T14:09:19.934Z,46.72
2016-12-27T14:10:00.611Z,46.72
2016-12-27T14:10:41.255Z,46.72
2016-12-27T14:11:21.928Z,46.81
2016-12-27T14:12:02.653Z,46.72
2016-12-27T14:12:43.296Z,47.2
2016-12-27T14:13:23.951Z,47.2
2016-12-27T14:14:04.634Z,47
2016-12-27T14:14:45.265Z,46.98
2016-12-27T14:15:25.936Z,47
2016-12-27T14:16:06.628Z,46.89
2016-12-27T14:16:47.249Z,46.79
2016-12-27T14:17:27.892Z,47.1
2016-12-27T14:18:08.592Z,46.62
2016-12-27T14:18:49.262Z,46.33
2016-12-27T14:19:29.895Z,45.56
2016-12-27T14:20:10.618Z,45.85
2016-12-27T14:20:51.247Z,45.56
2016-12-27T14:21:31.886Z,45.87
2016-12-27T14:22:12.550Z,45.78
2016-12-27T14:22:53.189Z,45.78
2016-12-27T14:23:33.836Z,45.68
2016-12-27T14:24:15.105Z,46.16
2016-12-27T14:24:55.727Z,46.55
2016-12-27T14:25:36.352Z,46.45
2016-12-27T14:26:16.993Z,45.78
2016-12-27T14:26:57.634Z,46.84
2016-12-27T14:27:38.264Z,46.55
2016-12-27T14:28:18.898Z,46.55
2016-12-27T14:28:59.528Z,47.03
2016-12-27T14:29:40.185Z,47.05
2016-12-27T14:30:20.924Z,47.05
2016-12-27T14:31:01.554Z,46.95
2016-12-27T14:31:42.179Z,46.95
2016-12-27T14:32:22.823Z,47.34
2016-12-27T14:33:03.460Z,47.15
2016-12-27T14:33:44.083Z,47.15
2016-12-27T14:34:24.712Z,47.44
2016-12-27T14:35:05.342Z,47.15
2016-12-27T14:35:45.990Z,46.95
2016-12-27T14:36:26.633Z,47.34
2016-12-27T14:37:07.257Z,46.26
2016-12-27T14:37:47.880Z,46.26
2016-12-27T14:38:28.500Z,45.78
2016-12-27T14:39:09.139Z,46.55
2016-12-27T14:39:49.764Z,46.45
2016-12-27T14:40:30.388Z,46.53
2016-12-27T14:41:11.011Z,46.72
2016-12-27T14:41:51.657Z,46.53
2016-12-27T14:42:32.349Z,46.53
2016-12-27T14:43:12.974Z,46.43
2016-12-27T14:43:53.604Z,47
2016-12-27T14:44:34.237Z,47.3
2016-12-27T14:45:14.878Z,47.2
2016-12-27T14:45:55.614Z,46.81
2016-12-27T14:46:36.236Z,46.81
2016-12-27T14:47:16.865Z,46.81
2016-12-27T14:47:57.494Z,47
2016-12-27T14:48:38.195Z,47.49
2016-12-27T14:49:18.843Z,47.49
2016-12-27T14:49:59.499Z,47.51
2016-12-27T14:50:40.142Z,47.61
2016-12-27T14:51:20.773Z,47.61
2016-12-27T14:52:01.415Z,47.41
2016-12-27T14:52:42.075Z,47.41
2016-12-27T14:53:22.721Z,47.22
2016-12-27T14:54:03.366Z,47.44
2016-12-27T14:54:44.086Z,46.86
2016-12-27T14:55:24.738Z,47.15
2016-12-27T14:56:05.362Z,47.34
2016-12-27T14:56:45.996Z,47.24
2016-12-27T14:57:26.677Z,47.15
2016-12-27T14:58:07.304Z,47.34
2016-12-27T14:58:48.016Z,46.86
2016-12-27T14:59:28.642Z,50.71
2016-12-27T15:00:09.277Z,54.65
2016-12-27T15:00:49.905Z,54.46
2016-12-27T15:01:30.559Z,57.92
2016-12-27T15:02:11.193Z,56.58
2016-12-27T15:02:51.824Z,58.31
2016-12-27T15:03:32.457Z,58.67
2016-12-27T15:04:13.093Z,56.45
2016-12-27T15:04:53.727Z,59.47
2016-12-27T15:05:34.353Z,58.31
2016-12-27T15:06:14.985Z,67.13
2016-12-27T15:06:55.732Z,73
2016-12-27T15:07:36.486Z,73
2016-12-27T15:08:17.178Z,73.96
2016-12-27T15:08:57.821Z,74.15
2016-12-27T15:09:38.468Z,74.21
2016-12-27T15:10:19.111Z,73.63
2016-12-27T15:10:59.743Z,74.21
2016-12-27T15:11:40.365Z,74.05
2016-12-27T15:12:21.039Z,72.96
2016-12-27T15:13:01.674Z,74.15
2016-12-27T15:13:42.314Z,70.78
2016-12-27T15:14:23.038Z,74.57
2016-12-27T15:15:03.668Z,70.72
2016-12-27T15:15:44.305Z,71.59
2016-12-27T15:16:24.932Z,73.42
2016-12-27T15:17:05.568Z,64.18
2016-12-27T15:17:46.193Z,61.29
2016-12-27T15:18:26.899Z,62.16
2016-12-27T15:19:07.547Z,63.92
2016-12-27T15:19:48.170Z,58.44
2016-12-27T15:20:28.808Z,59.3
2016-12-27T15:21:09.435Z,59.78
2016-12-27T15:21:50.093Z,60.77
2016-12-27T15:22:30.725Z,60.49
2016-12-27T15:23:11.356Z,61.93
2016-12-27T15:23:51.990Z,60.39
2016-12-27T15:24:32.619Z,62.99
2016-12-27T15:25:13.400Z,59.84
2016-12-27T15:25:54.028Z,54.83
2016-12-27T15:26:34.664Z,58.4
2016-12-27T15:27:15.288Z,60.35
2016-12-27T15:27:56.003Z,60.93
2016-12-27T15:28:36.697Z,55.63
2016-12-27T15:29:17.336Z,55.82
2016-12-27T15:29:57.970Z,54.09
2016-12-27T15:30:38.652Z,55.85
2016-12-27T15:31:19.354Z,53.37
2016-12-27T15:31:59.992Z,52.76
2016-12-27T15:32:40.625Z,54.28
2016-12-27T15:33:21.467Z,51.39
2016-12-27T15:34:02.111Z,50.98
2016-12-27T15:34:42.725Z,51.46
2016-12-27T15:35:23.423Z,55.6
2016-12-27T15:36:04.063Z,53.8
2016-12-27T15:36:44.717Z,53.13
2016-12-27T15:37:25.354Z,53.31
2016-12-27T15:38:05.982Z,51.97
2016-12-27T15:38:46.624Z,52.35
2016-12-27T15:39:27.317Z,58.26
2016-12-27T15:40:07.949Z,52.35
2016-12-27T15:40:48.573Z,50.81
2016-12-27T15:41:29.209Z,51.56
2016-12-27T15:42:09.857Z,51.84
2016-12-27T15:42:50.486Z,51.94
2016-12-27T15:43:31.114Z,52.13
2016-12-27T15:44:11.814Z,52.04
2016-12-27T15:44:52.444Z,52.23
2016-12-27T15:45:33.113Z,52.33
2016-12-27T15:46:13.758Z,52.33
2016-12-27T15:46:54.384Z,51.75
2016-12-27T15:47:35.106Z,52.13
2016-12-27T15:48:15.732Z,51.94
2016-12-27T15:48:56.364Z,54.06
2016-12-27T15:49:36.992Z,59.75
2016-12-27T15:50:17.634Z,60.93
2016-12-27T15:50:58.269Z,55.94
2016-12-27T15:51:38.977Z,54.21
2016-12-27T15:52:19.607Z,53.25
2016-12-27T15:53:00.296Z,53.44
2016-12-27T15:53:40.870Z,52.93
2016-12-27T15:54:21.506Z,53.31
2016-12-27T15:55:02.142Z,52.25
2016-12-27T15:55:42.776Z,52.73
2016-12-27T15:56:23.589Z,53.7
2016-12-27T15:57:04.228Z,52.45
2016-12-27T15:57:44.877Z,53.61
2016-12-27T15:58:25.509Z,56.79
2016-12-27T15:59:06.147Z,53.89
2016-12-27T15:59:46.789Z,51.1
2016-12-27T16:00:27.434Z,51.77
2016-12-27T16:01:08.059Z,51.7
2016-12-27T16:01:48.695Z,52.19
2016-12-27T16:02:29.319Z,51.7
2016-12-27T16:03:09.958Z,51.7
2016-12-27T16:03:50.586Z,50.54
2016-12-27T16:04:31.215Z,51.89
2016-12-27T16:05:11.853Z,49.87
2016-12-27T16:05:52.487Z,53.73
2016-12-27T16:06:33.115Z,49.32
2016-12-27T16:07:13.771Z,49.58
2016-12-27T16:07:54.415Z,52.01
2016-12-27T16:08:35.056Z,51.8
2016-12-27T16:09:15.713Z,50.16
2016-12-27T16:09:56.341Z,49.68
2016-12-27T16:10:36.975Z,49.48
2016-12-27T16:11:17.714Z,49.58
2016-12-27T16:11:58.345Z,49.8
2016-12-27T16:12:38.983Z,49.32
2016-12-27T16:13:19.610Z,52.01
2016-12-27T16:14:00.249Z,49.6
2016-12-27T16:14:40.940Z,51.25
2016-12-27T16:15:21.601Z,51.73
2016-12-27T16:16:02.810Z,49.7
2016-12-27T16:16:43.435Z,50.57
2016-12-27T16:17:24.062Z,50.47
2016-12-27T16:18:04.687Z,52.01
2016-12-27T16:18:45.326Z,56.2
2016-12-27T16:19:25.978Z,53.17
2016-12-27T16:20:06.634Z,51.15
2016-12-27T16:20:47.265Z,52.4
2016-12-27T16:21:27.947Z,55.4
2016-12-27T16:22:08.582Z,51.82
2016-12-27T16:22:49.241Z,54.05
2016-12-27T16:23:29.870Z,52.79
2016-12-27T16:24:10.540Z,50.06
2016-12-27T16:24:51.168Z,49.87
2016-12-27T16:25:31.798Z,49.39
2016-12-27T16:26:12.427Z,52.79
2016-12-27T16:26:53.180Z,52.4
2016-12-27T16:27:33.806Z,52.5
2016-12-27T16:28:14.434Z,49.29
2016-12-27T16:28:55.074Z,49.48
2016-12-27T16:29:35.721Z,51.99
2016-12-27T16:30:16.414Z,54.43
2016-12-27T16:30:57.089Z,52.69
2016-12-27T16:31:37.785Z,50.28
2016-12-27T16:32:18.417Z,52.21
2016-12-27T16:32:59.188Z,49.99
2016-12-27T16:33:39.834Z,49.02
2016-12-27T16:34:20.539Z,48.74
2016-12-27T16:35:01.252Z,47.38
2016-12-27T16:35:42.425Z,47.96
2016-12-27T16:36:23.055Z,47.87
2016-12-27T16:37:03.730Z,46.9
2016-12-27T16:37:44.374Z,47.48
2016-12-27T16:38:25.001Z,47.65
2016-12-27T16:39:05.685Z,49.51
2016-12-27T16:39:46.316Z,49.41
2016-12-27T16:40:26.949Z,48.93
2016-12-27T16:41:07.642Z,50.96
2016-12-27T16:41:48.266Z,50.69
2016-12-27T16:42:28.915Z,50.79
2016-12-27T16:43:09.543Z,47.5
2016-12-27T16:43:50.191Z,45.94
2016-12-27T16:44:30.822Z,48.83
2016-12-27T16:45:11.461Z,47.48
2016-12-27T16:45:52.084Z,47.19
2016-12-27T16:46:32.723Z,48.16
2016-12-27T16:47:13.345Z,49.22
2016-12-27T16:47:53.974Z,48.16
2016-12-27T16:48:34.660Z,47.77
2016-12-27T16:49:15.295Z,48.93
2016-12-27T16:49:55.929Z,47.87
2016-12-27T16:50:36.551Z,51.15
2016-12-27T16:51:17.191Z,46.9
2016-12-27T16:51:57.826Z,47.38
2016-12-27T16:52:38.464Z,46.3
2016-12-27T16:53:19.217Z,45.62
2016-12-27T16:53:59.991Z,48.42
2016-12-27T16:54:40.617Z,48.33
2016-12-27T16:55:21.302Z,44.66
2016-12-27T16:56:01.948Z,45.7
2016-12-27T16:56:42.578Z,46.08
2016-12-27T16:57:23.292Z,46.83
2016-12-27T16:58:03.972Z,47.22
2016-12-27T16:58:44.603Z,46.93
2016-12-27T16:59:25.240Z,47.12
2016-12-27T17:00:05.872Z,46.83
2016-12-27T17:00:46.511Z,46.83
2016-12-27T17:01:27.139Z,46.73
2016-12-27T17:02:07.771Z,47.22
2016-12-27T17:02:48.409Z,48.69
2016-12-27T17:03:29.110Z,46.76
2016-12-27T17:04:09.797Z,46.97
2016-12-27T17:04:50.430Z,46.97
2016-12-27T17:05:31.061Z,46.69
2016-12-27T17:06:11.708Z,46.4
2016-12-27T17:06:52.348Z,46.49
2016-12-27T17:07:32.976Z,46.2
2016-12-27T17:08:13.620Z,46.49
2016-12-27T17:08:54.327Z,47.48
2016-12-27T17:09:34.973Z,45.94
2016-12-27T17:10:15.601Z,47.67
2016-12-27T17:10:56.243Z,45.75
2016-12-27T17:11:36.869Z,45.75
2016-12-27T17:12:17.519Z,46.42
2016-12-27T17:12:58.246Z,45.65
2016-12-27T17:13:38.890Z,46.03
2016-12-27T17:14:19.649Z,48.16
2016-12-27T17:15:00.439Z,46.51
2016-12-27T17:15:41.071Z,46.81
2016-12-27T17:16:21.706Z,45.96
2016-12-27T17:17:02.416Z,46.34
2016-12-27T17:17:43.109Z,46.06
2016-12-27T17:18:23.761Z,47.89
2016-12-27T17:19:04.391Z,46.06
2016-12-27T17:19:45.038Z,46.64
2016-12-27T17:20:25.675Z,45.38
2016-12-27T17:21:06.421Z,45.94
2016-12-27T17:21:47.058Z,47.38
2016-12-27T17:22:27.693Z,47.96
2016-12-27T17:23:08.316Z,47.38
2016-12-27T17:23:48.935Z,47.48
2016-12-27T17:24:29.574Z,48.16
2016-12-27T17:25:10.199Z,47.6
2016-12-27T17:25:50.877Z,46.83
2016-12-27T17:26:31.518Z,47.12
2016-12-27T17:27:12.150Z,48.57
2016-12-27T17:27:52.773Z,47.91
2016-12-27T17:28:33.411Z,45.96
2016-12-27T17:29:14.045Z,46.75
2016-12-27T17:29:54.738Z,47.02
2016-12-27T17:30:35.450Z,47.5
2016-12-27T17:31:16.077Z,47.5
2016-12-27T17:31:56.708Z,47.7
2016-12-27T17:32:37.373Z,47.6
2016-12-27T17:33:18.009Z,47.8
2016-12-27T17:33:58.698Z,47.89
2016-12-27T17:34:39.368Z,47.6
2016-12-27T17:35:19.999Z,47.7
2016-12-27T17:36:00.630Z,47.12
2016-12-27T17:36:41.258Z,53.55
2016-12-27T17:37:21.889Z,49.54
2016-12-27T17:38:02.578Z,44.02
2016-12-27T17:38:43.214Z,44.77
2016-12-27T17:39:23.861Z,45.23
2016-12-27T17:40:04.488Z,46.56
2016-12-27T17:40:45.139Z,47.65
2016-12-27T17:41:25.783Z,47.14
2016-12-27T17:42:06.495Z,47.72
2016-12-27T17:42:47.249Z,48.59
2016-12-27T17:43:27.958Z,48.01
2016-12-27T17:44:08.587Z,48.18
2016-12-27T17:44:49.216Z,48.28
2016-12-27T17:45:29.849Z,49.24
2016-12-27T17:46:10.487Z,48.57
2016-12-27T17:46:51.130Z,49.34
2016-12-27T17:47:31.774Z,48.66
2016-12-27T17:48:12.415Z,48.86
2016-12-27T17:48:53.043Z,48.95
2016-12-27T17:49:33.672Z,49.63
2016-12-27T17:50:14.302Z,50.52
2016-12-27T17:50:54.931Z,49.27
2016-12-27T17:51:35.571Z,48.11
2016-12-27T17:52:16.213Z,48.69
2016-12-27T17:52:56.839Z,48.37
2016-12-27T17:53:37.470Z,48.57
2016-12-27T17:54:18.110Z,49.75
2016-12-27T17:54:58.746Z,49.34
2016-12-27T17:55:39.391Z,48.57
2016-12-27T17:56:20.015Z,48.28
2016-12-27T17:57:00.659Z,48.66
2016-12-27T17:57:41.283Z,49.34
2016-12-27T17:58:21.909Z,49.24
2016-12-27T17:59:02.549Z,48.66
2016-12-27T17:59:43.180Z,48.95
2016-12-27T18:00:23.822Z,48.86
2016-12-27T18:01:04.446Z,49.05
2016-12-27T18:01:45.082Z,49.92
2016-12-27T18:02:25.715Z,49.53
2016-12-27T18:03:06.417Z,53.55
2016-12-27T18:03:47.074Z,48.79
2016-12-27T18:04:27.718Z,49.34
2016-12-27T18:05:08.344Z,49.6
2016-12-27T18:05:48.976Z,49.9
2016-12-27T18:06:29.620Z,49.7
2016-12-27T18:07:10.311Z,49.32
2016-12-27T18:07:50.985Z,49.99
2016-12-27T18:08:31.617Z,49.8
2016-12-27T18:09:12.302Z,49.6
2016-12-27T18:09:52.934Z,49.9
2016-12-27T18:10:33.566Z,50.18
2016-12-27T18:11:14.198Z,50.06
2016-12-27T18:11:54.884Z,50.64
2016-12-27T18:12:35.522Z,50.45
2016-12-27T18:13:16.205Z,50.54
2016-12-27T18:13:56.836Z,50.64
2016-12-27T18:14:37.467Z,50.54
2016-12-27T18:15:18.188Z,50.74
2016-12-27T18:15:58.928Z,50.84
2016-12-27T18:16:39.549Z,50.84
2016-12-27T18:17:20.180Z,51.22
2016-12-27T18:18:00.813Z,51.51
2016-12-27T18:18:41.523Z,51.89
2016-12-27T18:19:22.172Z,50.96
2016-12-27T18:20:02.816Z,50.45
2016-12-27T18:20:43.504Z,50.45
2016-12-27T18:21:24.154Z,50.93
2016-12-27T18:22:04.778Z,51.41
2016-12-27T18:22:45.495Z,51.8
2016-12-27T18:23:26.123Z,51.61
2016-12-27T18:24:06.754Z,51.7
2016-12-27T18:24:47.391Z,51.8
2016-12-27T18:25:28.025Z,51.8
2016-12-27T18:26:08.649Z,51.89
2016-12-27T18:26:49.283Z,51.8
2016-12-27T18:27:29.914Z,51.61
2016-12-27T18:28:10.570Z,51.8
2016-12-27T18:28:51.201Z,51.51
2016-12-27T18:29:31.844Z,51.61
2016-12-27T18:30:12.464Z,51.89
2016-12-27T18:30:53.219Z,51.99
2016-12-27T18:31:33.855Z,52.19
2016-12-27T18:32:14.566Z,51.99
2016-12-27T18:32:55.267Z,52.37
2016-12-27T18:33:35.964Z,52.09
2016-12-27T18:34:16.600Z,51.99
2016-12-27T18:34:57.264Z,52.28
2016-12-27T18:35:38.038Z,52.09
2016-12-27T18:36:18.673Z,52.09
2016-12-27T18:36:59.300Z,52.09
2016-12-27T18:37:39.958Z,52.28
2016-12-27T18:38:20.589Z,50.54
2016-12-27T18:39:01.221Z,48.49
2016-12-27T18:39:41.919Z,47.44
2016-12-27T18:40:22.628Z,46.15
2016-12-27T18:41:03.187Z,48.95
2016-12-27T18:41:43.904Z,49.05
2016-12-27T18:42:24.545Z,48.18
2016-12-27T18:43:05.177Z,47.8
2016-12-27T18:43:45.814Z,47.51
2016-12-27T18:44:26.444Z,47.41
2016-12-27T18:45:07.081Z,47.22
2016-12-27T18:45:47.731Z,47.1
2016-12-27T18:46:28.459Z,47.49
2016-12-27T18:47:09.108Z,47
2016-12-27T18:47:49.742Z,47.19
2016-12-27T18:48:30.376Z,47.1
2016-12-27T18:49:11.004Z,47.1
2016-12-27T18:49:51.737Z,47.1
2016-12-27T18:50:32.368Z,47.49
2016-12-27T18:51:12.999Z,47.1
2016-12-27T18:51:53.624Z,47.19
2016-12-27T18:52:34.256Z,46.71
2016-12-27T18:53:14.886Z,45.83
2016-12-27T18:53:55.545Z,46.14
2016-12-27T18:54:36.173Z,45.63
2016-12-27T18:55:16.820Z,45.83
2016-12-27T18:55:57.543Z,46.11
2016-12-27T18:56:38.286Z,45.63
2016-12-27T18:57:18.961Z,45.73
2016-12-27T18:57:59.587Z,45.34
2016-12-27T18:58:40.245Z,45.34
2016-12-27T18:59:20.923Z,45.63
2016-12-27T19:00:01.554Z,45.92
2016-12-27T19:00:42.268Z,45.63
2016-12-27T19:01:22.987Z,45.83
2016-12-27T19:02:03.619Z,45.83
2016-12-27T19:02:44.362Z,45.92
2016-12-27T19:03:25.005Z,45.36
2016-12-27T19:04:05.636Z,45.17
2016-12-27T19:04:46.263Z,45.17
2016-12-27T19:05:26.898Z,45.07
2016-12-27T19:06:07.522Z,45.17
2016-12-27T19:06:48.172Z,44.89
2016-12-27T19:07:28.884Z,44.79
2016-12-27T19:08:09.573Z,44.89
2016-12-27T19:08:50.227Z,44.89
2016-12-27T19:09:30.907Z,44.89
2016-12-27T19:10:11.564Z,45.07
2016-12-27T19:10:52.204Z,44.98
2016-12-27T19:11:32.841Z,44.98
2016-12-27T19:12:13.499Z,45.07
2016-12-27T19:12:54.131Z,45.17
2016-12-27T19:13:34.844Z,45.17
2016-12-27T19:14:15.508Z,45.07
2016-12-27T19:14:56.136Z,45.17
2016-12-27T19:15:36.771Z,45.17
2016-12-27T19:16:17.537Z,44.98
2016-12-27T19:16:58.227Z,45.07
2016-12-27T19:17:38.858Z,45.27
2016-12-27T19:18:19.582Z,45.17
2016-12-27T19:19:00.259Z,45.17
2016-12-27T19:19:40.899Z,45.17
2016-12-27T19:20:21.604Z,45.36
2016-12-27T19:21:02.339Z,45.27
2016-12-27T19:21:43.035Z,45.46
2016-12-27T19:22:23.669Z,45.46
2016-12-27T19:23:04.313Z,45.65
2016-12-27T19:23:44.982Z,46.04
2016-12-27T19:24:25.629Z,45.94
2016-12-27T19:25:06.270Z,45.84
2016-12-27T19:25:46.900Z,45.75
2016-12-27T19:26:27.540Z,45.75
2016-12-27T19:27:08.168Z,45.84
2016-12-27T19:27:48.885Z,45.75
2016-12-27T19:28:29.515Z,45.84
2016-12-27T19:29:10.151Z,45.65
2016-12-27T19:29:50.791Z,45.65
2016-12-27T19:30:31.451Z,45.65
2016-12-27T19:31:12.075Z,45.65
2016-12-27T19:31:52.722Z,45.56
2016-12-27T19:32:33.356Z,45.84
2016-12-27T19:33:13.983Z,45.56
2016-12-27T19:33:54.610Z,45.56
2016-12-27T19:34:35.234Z,45.65
2016-12-27T19:35:15.929Z,45.84
2016-12-27T19:35:56.629Z,45.75
2016-12-27T19:36:37.257Z,45.65
2016-12-27T19:37:17.887Z,45.84
2016-12-27T19:37:58.536Z,45.65
2016-12-27T19:38:39.184Z,45.65
2016-12-27T19:39:19.823Z,45.84
2016-12-27T19:40:00.451Z,45.94
2016-12-27T19:40:41.098Z,45.84
2016-12-27T19:41:21.739Z,45.94
2016-12-27T19:42:02.505Z,45.94
2016-12-27T19:42:43.149Z,45.84
2016-12-27T19:43:23.806Z,46.14
2016-12-27T19:44:04.472Z,45.84
2016-12-27T19:44:45.106Z,46.04
2016-12-27T19:45:25.738Z,46.23
2016-12-27T19:46:06.425Z,46.52
2016-12-27T19:46:47.173Z,46.71
2016-12-27T19:47:27.825Z,46.14
2016-12-27T19:48:08.471Z,46.62
2016-12-27T19:48:49.168Z,46.33
2016-12-27T19:49:29.820Z,46.62
2016-12-27T19:50:10.468Z,46.71
2016-12-27T19:50:51.123Z,46.91
2016-12-27T19:51:31.754Z,46.52
2016-12-27T19:52:12.393Z,46.52
2016-12-27T19:52:53.033Z,46.52
2016-12-27T19:53:33.663Z,46.62
2016-12-27T19:54:14.297Z,46.81
2016-12-27T19:54:54.934Z,46.42
2016-12-27T19:55:35.567Z,46.33
2016-12-27T19:56:16.203Z,46.52
2016-12-27T19:56:56.841Z,46.42
2016-12-27T19:57:37.472Z,46.62
2016-12-27T19:58:18.120Z,46.42
2016-12-27T19:58:58.767Z,46.52
2016-12-27T19:59:39.404Z,46.81
2016-12-27T20:00:20.036Z,46.91
2016-12-27T20:01:00.673Z,46.91
2016-12-27T20:01:41.362Z,46.91
2016-12-27T20:02:22.005Z,46.91
2016-12-27T20:03:02.653Z,47
2016-12-27T20:03:43.369Z,46.91
2016-12-27T20:04:23.998Z,46.71
2016-12-27T20:05:04.638Z,46.81
2016-12-27T20:05:45.268Z,46.62
2016-12-27T20:06:25.918Z,46.71
2016-12-27T20:07:06.568Z,46.71
2016-12-27T20:07:47.325Z,46.71
2016-12-27T20:08:27.954Z,46.62
2016-12-27T20:09:08.587Z,46.71
2016-12-27T20:09:49.224Z,46.91
2016-12-27T20:10:29.876Z,46.71
2016-12-27T20:11:10.530Z,46.71
2016-12-27T20:11:51.183Z,46.62
2016-12-27T20:12:31.827Z,46.62
2016-12-27T20:13:12.469Z,46.71
2016-12-27T20:13:53.179Z,46.52
2016-12-27T20:14:33.810Z,46.52
2016-12-27T20:15:14.444Z,46.62
2016-12-27T20:15:55.073Z,46.42
2016-12-27T20:16:35.763Z,46.62
2016-12-27T20:17:16.339Z,46.62
2016-12-27T20:17:57.031Z,46.62
2016-12-27T20:18:37.669Z,46.71
2016-12-27T20:19:18.301Z,46.62
2016-12-27T20:19:58.964Z,45.25
2016-12-27T20:20:39.621Z,44.67
2016-12-27T20:21:20.263Z,43.68
2016-12-27T20:22:00.955Z,44.65
2016-12-27T20:22:41.594Z,45.13
2016-12-27T20:23:22.226Z,44.93
2016-12-27T20:24:02.908Z,45.22
2016-12-27T20:24:43.542Z,45.13
2016-12-27T20:25:24.224Z,45.61
2016-12-27T20:26:04.908Z,45.61
2016-12-27T20:26:45.575Z,45.8
2016-12-27T20:27:26.214Z,46.06
2016-12-27T20:28:06.853Z,45.68
2016-12-27T20:28:47.570Z,45.9
2016-12-27T20:29:28.199Z,45.61
2016-12-27T20:30:08.833Z,45.61
2016-12-27T20:30:49.509Z,45.7